createdAt,value
2022-10-19T00:01:58.593Z,70.81
2022-10-19T00:04:32.275Z,70.83
2022-10-19T00:07:05.885Z,70.80
2022-10-19T00:09:39.285Z,70.30
2022-10-19T00:12:14.365Z,70.62
2022-10-19T00:14:48.015Z,70.78
2022-10-19T00:17:21.334Z,70.27
2022-10-19T00:19:56.836Z,70.80
2022-10-19T00:22:33.552Z,71.05
2022-10-19T00:25:08.295Z,71.16
2022-10-19T00:27:43.267Z,71.27
2022-10-19T00:30:17.067Z,71.39
2022-10-19T00:32:50.751Z,71.60
2022-10-19T00:35:24.384Z,71.76
2022-10-19T00:37:57.925Z,71.65
2022-10-19T00:40:31.542Z,71.92
2022-10-19T00:43:11.209Z,71.79
2022-10-19T00:45:45.451Z,72.08
2022-10-19T00:48:22.670Z,72.21
2022-10-19T00:50:57.953Z,72.31
2022-10-19T00:53:32.680Z,72.51
2022-10-19T00:56:12.115Z,72.62
2022-10-19T00:58:47.583Z,72.82
2022-10-19T01:01:23.968Z,72.82
2022-10-19T01:03:57.624Z,72.92
2022-10-19T01:06:31.420Z,72.87
2022-10-19T01:09:04.857Z,72.20
2022-10-19T01:11:53.781Z,72.69
2022-10-19T01:14:43.079Z,73.01
2022-10-19T01:17:24.068Z,73.10
2022-10-19T01:20:24.403Z,73.03
2022-10-19T01:23:19.884Z,73.18
2022-10-19T01:26:00.140Z,73.30
2022-10-19T01:28:46.899Z,73.36
2022-10-19T01:31:28.841Z,73.47
2022-10-19T01:34:09.043Z,73.56
2022-10-19T01:36:48.149Z,73.52
2022-10-19T01:39:29.161Z,73.49
2022-10-19T01:42:09.719Z,73.57
2022-10-19T01:44:48.667Z,73.58
2022-10-19T01:47:27.817Z,73.63
2022-10-19T01:50:07.970Z,73.57
2022-10-19T01:52:43.410Z,73.42
2022-10-19T01:55:19.641Z,73.42
2022-10-19T01:57:58.581Z,73.43
2022-10-19T02:00:36.381Z,73.31
2022-10-19T02:03:13.138Z,73.19
2022-10-19T02:05:48.839Z,73.22
2022-10-19T02:08:26.995Z,73.14
2022-10-19T02:11:01.602Z,73.09
2022-10-19T02:13:36.018Z,73.00
2022-10-19T02:16:13.840Z,72.99
2022-10-19T02:18:52.459Z,72.91
2022-10-19T02:21:27.606Z,72.84
2022-10-19T02:24:01.134Z,72.81
2022-10-19T02:26:34.840Z,72.56
2022-10-19T02:29:08.484Z,71.99
2022-10-19T02:31:42.068Z,72.19
2022-10-19T02:34:16.988Z,72.22
2022-10-19T02:36:50.924Z,72.33
2022-10-19T02:39:24.773Z,72.17
2022-10-19T02:42:03.212Z,72.27
2022-10-19T02:44:42.598Z,72.41
2022-10-19T02:47:20.763Z,72.26
2022-10-19T02:49:55.744Z,72.22
2022-10-19T02:52:30.580Z,72.27
2022-10-19T02:55:04.238Z,72.24
2022-10-19T02:57:38.017Z,72.26
2022-10-19T03:00:11.909Z,71.78
2022-10-19T03:02:46.954Z,72.04
2022-10-19T03:05:22.019Z,72.16
2022-10-19T03:07:55.504Z,72.15
2022-10-19T03:10:29.044Z,72.39
2022-10-19T03:13:02.669Z,72.34
2022-10-19T03:15:36.200Z,72.35
2022-10-19T03:18:09.696Z,72.46
2022-10-19T03:20:44.665Z,72.60
2022-10-19T03:23:18.216Z,72.65
2022-10-19T03:25:51.773Z,72.54
2022-10-19T03:28:25.451Z,72.58
2022-10-19T03:30:58.838Z,72.24
2022-10-19T03:33:32.392Z,72.29
2022-10-19T03:36:23.177Z,72.03
2022-10-19T03:38:58.576Z,72.30
2022-10-19T03:41:34.057Z,72.16
2022-10-19T03:44:08.728Z,72.05
2022-10-19T03:46:42.286Z,71.83
2022-10-19T03:49:15.822Z,71.81
2022-10-19T03:51:50.784Z,71.69
2022-10-19T03:54:27.270Z,71.47
2022-10-19T03:57:01.185Z,71.25
2022-10-19T03:59:34.790Z,71.05
2022-10-19T04:02:08.498Z,70.84
2022-10-19T04:04:42.033Z,70.51
2022-10-19T04:07:17.199Z,70.41
2022-10-19T04:09:50.774Z,70.22
2022-10-19T04:12:24.345Z,69.89
2022-10-19T04:15:04.598Z,69.92
2022-10-19T04:17:38.164Z,69.83
2022-10-19T04:20:12.598Z,69.89
2022-10-19T04:22:47.637Z,69.99
2022-10-19T04:25:21.475Z,70.01
2022-10-19T04:27:54.676Z,69.71
2022-10-19T04:30:28.417Z,70.01
2022-10-19T04:33:01.683Z,69.75
2022-10-19T04:35:35.251Z,69.98
2022-10-19T04:38:10.313Z,70.23
2022-10-19T04:40:43.939Z,70.27
2022-10-19T04:43:17.490Z,70.33
2022-10-19T04:45:51.156Z,70.59
2022-10-19T04:48:24.776Z,70.38
2022-10-19T04:56:07.506Z,70.24
2022-10-19T04:58:42.851Z,70.26
2022-10-19T05:01:18.368Z,70.30
2022-10-19T05:06:34.176Z,70.29
2022-10-19T05:09:07.807Z,69.93
2022-10-19T05:11:41.293Z,70.18
2022-10-19T05:14:16.371Z,70.24
2022-10-19T05:16:50.032Z,70.50
2022-10-19T05:19:23.512Z,70.39
2022-10-19T05:21:57.021Z,70.43
2022-10-19T05:24:32.686Z,70.75
2022-10-19T05:27:06.295Z,70.62
2022-10-19T05:29:41.168Z,70.55
2022-10-19T05:32:14.763Z,70.55
2022-10-19T05:34:48.251Z,70.68
2022-10-19T05:37:22.303Z,70.59
2022-10-19T05:39:56.400Z,70.70
2022-10-19T05:42:29.990Z,70.54
2022-10-19T05:45:05.795Z,70.73
2022-10-19T05:47:39.387Z,70.71
2022-10-19T05:50:12.918Z,70.80
2022-10-19T05:52:46.504Z,70.79
2022-10-19T05:55:19.944Z,70.87
2022-10-19T05:57:53.426Z,70.77
2022-10-19T06:00:28.509Z,70.94
2022-10-19T06:03:02.236Z,70.83
2022-10-19T06:05:37.657Z,70.80
2022-10-19T06:08:11.150Z,70.70
2022-10-19T06:10:44.778Z,70.76
2022-10-19T06:13:18.673Z,70.23
2022-10-19T06:15:53.830Z,70.38
2022-10-19T06:18:30.131Z,70.43
2022-10-19T06:21:04.683Z,70.34
2022-10-19T06:23:39.481Z,70.36
2022-10-19T06:26:14.644Z,70.30
2022-10-19T06:28:48.748Z,70.23
2022-10-19T06:31:23.747Z,70.31
2022-10-19T06:33:58.940Z,70.16
2022-10-19T06:36:33.244Z,70.19
2022-10-19T06:39:07.228Z,70.06
2022-10-19T06:41:40.844Z,69.83
2022-10-19T06:44:24.537Z,69.55
2022-10-19T06:46:59.442Z,69.69
2022-10-19T06:49:37.960Z,69.60
2022-10-19T06:52:13.984Z,69.30
2022-10-19T06:54:47.430Z,68.95
2022-10-19T06:57:23.306Z,68.83
2022-10-19T06:59:57.085Z,68.62
2022-10-19T07:02:31.905Z,68.49
2022-10-19T07:05:09.053Z,68.24
2022-10-19T07:07:42.635Z,68.00
2022-10-19T07:10:15.848Z,67.78
2022-10-19T07:12:49.231Z,67.57
2022-10-19T07:15:22.697Z,67.26
2022-10-19T07:17:57.594Z,67.09
2022-10-19T07:20:31.147Z,66.98
2022-10-19T07:23:04.642Z,66.63
2022-10-19T07:25:38.301Z,66.40
2022-10-19T07:28:11.881Z,66.38
2022-10-19T07:30:45.547Z,66.22
2022-10-19T07:33:20.549Z,66.17
2022-10-19T07:36:01.152Z,66.43
2022-10-19T07:38:35.424Z,66.40
2022-10-19T07:41:11.425Z,66.51
2022-10-19T07:43:46.857Z,66.34
2022-10-19T07:46:22.634Z,66.08
2022-10-19T07:48:57.704Z,66.01
2022-10-19T07:51:31.694Z,66.03
2022-10-19T07:54:05.935Z,66.25
2022-10-19T07:56:39.458Z,66.03
2022-10-19T07:59:15.041Z,66.02
2022-10-19T08:01:50.543Z,65.62
2022-10-19T08:07:27.835Z,65.30
2022-10-19T08:10:01.344Z,65.06
2022-10-19T08:12:37.726Z,65.01
2022-10-19T08:15:11.569Z,65.23
2022-10-19T08:17:45.052Z,65.20
2022-10-19T08:20:20.298Z,65.17
2022-10-19T08:22:56.487Z,65.34
2022-10-19T08:25:32.421Z,65.32
2022-10-19T08:28:05.864Z,65.44
2022-10-19T08:30:40.315Z,65.51
2022-10-19T08:33:15.414Z,65.42
2022-10-19T08:35:54.063Z,65.44
2022-10-19T08:38:29.911Z,65.40
2022-10-19T08:41:14.368Z,65.59
2022-10-19T08:44:02.375Z,65.52
2022-10-19T08:46:48.028Z,65.64
2022-10-19T08:49:23.273Z,65.27
2022-10-19T08:52:01.026Z,65.36
2022-10-19T08:54:44.359Z,65.45
2022-10-19T08:57:31.412Z,65.75
2022-10-19T09:00:12.307Z,65.55
2022-10-19T09:02:57.319Z,65.41
2022-10-19T09:05:38.580Z,65.59
2022-10-19T09:08:17.804Z,65.51
2022-10-19T09:10:54.769Z,65.34
2022-10-19T09:13:46.983Z,64.56
2022-10-19T09:16:27.323Z,64.50
2022-10-19T09:19:00.716Z,64.45
2022-10-19T09:21:47.453Z,64.38
2022-10-19T09:24:30.900Z,64.48
2022-10-19T09:27:04.854Z,64.55
2022-10-19T09:29:45.687Z,64.50
2022-10-19T09:32:23.377Z,64.51
2022-10-19T09:35:04.118Z,64.60
2022-10-19T09:37:44.454Z,64.70
2022-10-19T09:40:21.445Z,64.82
2022-10-19T09:42:58.797Z,64.71
2022-10-19T09:45:40.354Z,64.48
2022-10-19T09:48:21.956Z,64.50
2022-10-19T09:51:00.573Z,64.46
2022-10-19T09:53:36.711Z,62.77
2022-10-19T09:56:20.176Z,60.04
2022-10-19T09:58:55.701Z,57.48
2022-10-19T10:01:41.966Z,56.17
2022-10-19T10:04:18.681Z,55.38
2022-10-19T10:06:52.166Z,53.64
2022-10-19T10:09:29.106Z,51.12
2022-10-19T10:12:08.628Z,49.46
2022-10-19T10:14:42.611Z,48.82
2022-10-19T10:17:20.250Z,47.64
2022-10-19T10:20:06.683Z,47.94
2022-10-19T10:22:40.148Z,48.44
2022-10-19T10:25:14.951Z,50.23
2022-10-19T10:28:01.426Z,50.00
2022-10-19T10:30:38.611Z,50.00
2022-10-19T10:33:27.066Z,50.48
2022-10-19T10:36:12.653Z,50.20
2022-10-19T10:38:51.708Z,50.86
2022-10-19T10:41:29.023Z,51.29
2022-10-19T10:44:11.678Z,52.37
2022-10-19T10:46:52.787Z,53.17
2022-10-19T10:49:29.723Z,54.04
2022-10-19T10:52:07.646Z,53.93
2022-10-19T10:54:41.296Z,53.89
2022-10-19T10:57:17.033Z,54.55
2022-10-19T10:59:58.360Z,55.52
2022-10-19T11:02:40.797Z,56.75
2022-10-19T11:05:19.407Z,57.75
2022-10-19T11:07:57.963Z,58.53
2022-10-19T11:10:35.519Z,59.35
2022-10-19T11:13:17.392Z,60.08
2022-10-19T11:15:56.946Z,60.69
2022-10-19T11:18:35.198Z,60.97
2022-10-19T11:21:16.971Z,61.27
2022-10-19T11:24:02.708Z,60.71
2022-10-19T11:27:03.791Z,60.19
2022-10-19T11:29:51.216Z,60.01
2022-10-19T11:32:35.609Z,59.36
2022-10-19T11:35:33.879Z,59.68
2022-10-19T11:38:27.423Z,59.49
2022-10-19T11:41:18.507Z,59.32
2022-10-19T11:44:22.108Z,56.55
2022-10-19T11:47:10.441Z,52.98
2022-10-19T11:49:56.334Z,51.09
2022-10-19T11:52:46.538Z,47.97
2022-10-19T11:55:34.577Z,46.00
2022-10-19T11:58:34.588Z,44.00
2022-10-19T12:01:17.520Z,43.72
2022-10-19T12:04:17.841Z,43.71
2022-10-19T12:07:07.753Z,43.72
2022-10-19T12:09:51.596Z,44.57
2022-10-19T12:12:57.303Z,44.83
2022-10-19T12:15:35.380Z,44.29
2022-10-19T12:18:15.330Z,42.11
2022-10-19T12:20:50.942Z,39.07
2022-10-19T12:23:29.065Z,37.72
2022-10-19T12:26:05.807Z,36.61
2022-10-19T12:28:41.895Z,36.51
2022-10-19T12:31:15.736Z,34.83
2022-10-19T12:33:54.395Z,34.13
2022-10-19T12:36:38.997Z,34.76
2022-10-19T12:39:24.566Z,34.61
2022-10-19T12:42:04.424Z,35.28
2022-10-19T12:45:13.342Z,36.84
2022-10-19T12:48:19.006Z,37.15
2022-10-19T12:51:03.787Z,37.17
2022-10-19T12:53:39.372Z,37.96
2022-10-19T12:56:18.571Z,38.59
2022-10-19T12:58:57.733Z,39.43
2022-10-19T13:01:44.348Z,40.39
2022-10-19T13:04:20.510Z,40.85
2022-10-19T13:07:02.497Z,41.39
2022-10-19T13:09:37.229Z,41.55
2022-10-19T13:12:44.113Z,41.44
2022-10-19T13:15:56.080Z,40.26
2022-10-19T13:19:09.567Z,37.87
2022-10-19T13:21:47.428Z,36.05
2022-10-19T13:24:37.858Z,34.38
2022-10-19T13:27:39.390Z,34.63
2022-10-19T13:30:45.574Z,35.36
2022-10-19T13:33:44.970Z,36.25
2022-10-19T13:36:18.786Z,36.59
2022-10-19T13:39:14.362Z,37.34
2022-10-19T13:41:56.264Z,37.62
2022-10-19T13:44:37.755Z,38.45
2022-10-19T13:50:27.572Z,40.53
2022-10-19T13:53:14.564Z,41.23
2022-10-19T13:56:00.289Z,41.80
2022-10-19T13:58:58.899Z,42.27
2022-10-19T14:01:48.827Z,42.90
2022-10-19T14:04:35.964Z,43.85
2022-10-19T14:07:18.210Z,44.25
2022-10-19T14:10:09.027Z,44.27
2022-10-19T14:12:44.218Z,44.36
2022-10-19T14:15:24.316Z,44.26
2022-10-19T14:18:03.657Z,44.12
2022-10-19T14:20:40.490Z,44.17
2022-10-19T14:23:23.316Z,44.26
2022-10-19T14:26:00.322Z,44.25
2022-10-19T14:28:35.171Z,44.80
2022-10-19T14:31:11.474Z,44.81
2022-10-19T14:33:49.179Z,44.99
2022-10-19T14:36:26.458Z,45.42
2022-10-19T14:38:59.972Z,45.46
2022-10-19T14:41:36.096Z,45.57
2022-10-19T14:44:35.881Z,46.23
2022-10-19T14:47:19.602Z,46.55
2022-10-19T14:49:54.915Z,46.81
2022-10-19T14:52:34.022Z,47.49
2022-10-19T14:55:15.379Z,47.91
2022-10-19T14:57:54.337Z,48.15
2022-10-19T15:00:28.860Z,48.46
2022-10-19T15:03:06.099Z,48.70
2022-10-19T15:05:48.418Z,49.03
2022-10-19T15:08:31.075Z,49.37
2022-10-19T15:11:09.308Z,49.65
2022-10-19T15:13:44.307Z,49.80
2022-10-19T15:16:45.294Z,49.99
2022-10-19T15:19:23.378Z,50.40
2022-10-19T15:22:18.564Z,50.62
2022-10-19T15:25:02.409Z,50.96
2022-10-19T15:27:37.112Z,51.24
2022-10-19T15:30:29.537Z,51.44
2022-10-19T15:33:16.982Z,51.91
2022-10-19T15:35:53.763Z,52.01
2022-10-19T15:38:33.061Z,52.20
2022-10-19T15:41:06.897Z,52.32
2022-10-19T15:43:46.970Z,52.43
2022-10-19T15:46:26.932Z,52.43
2022-10-19T15:49:06.262Z,52.51
2022-10-19T15:51:49.717Z,52.37
2022-10-19T15:54:29.152Z,52.37
2022-10-19T15:57:02.641Z,52.34
2022-10-19T15:59:36.225Z,52.43
2022-10-19T16:02:14.876Z,52.68
2022-10-19T16:04:48.401Z,52.62
2022-10-19T16:07:32.104Z,52.72
2022-10-19T16:10:08.647Z,52.83
2022-10-19T16:12:47.028Z,53.14
2022-10-19T16:15:23.567Z,53.26
2022-10-19T16:17:59.544Z,53.25
2022-10-19T16:20:36.435Z,53.52
2022-10-19T16:23:10.387Z,53.61
2022-10-19T16:25:45.324Z,53.71
2022-10-19T16:28:21.870Z,53.72
2022-10-19T16:30:56.117Z,53.80
2022-10-19T16:33:29.825Z,53.93
2022-10-19T16:36:06.191Z,53.99
2022-10-19T16:38:45.483Z,54.06
2022-10-19T16:41:21.245Z,54.35
2022-10-19T16:43:58.773Z,54.43
2022-10-19T16:46:32.593Z,54.46
2022-10-19T16:49:06.197Z,54.72
2022-10-19T16:51:44.242Z,54.81
2022-10-19T16:54:18.034Z,54.89
2022-10-19T16:56:55.773Z,54.18
2022-10-19T16:59:32.211Z,54.61
2022-10-19T17:02:05.775Z,54.81
2022-10-19T17:04:53.461Z,55.11
2022-10-19T17:07:32.115Z,55.22
2022-10-19T17:10:06.167Z,55.08
2022-10-19T17:12:48.649Z,55.32
2022-10-19T17:15:42.009Z,55.34
2022-10-19T17:20:55.666Z,55.49
2022-10-19T17:23:29.238Z,55.42
2022-10-19T17:26:02.780Z,55.54
2022-10-19T17:28:38.770Z,55.60
2022-10-19T17:31:15.167Z,55.93
2022-10-19T17:33:49.865Z,55.78
2022-10-19T17:36:26.462Z,55.76
2022-10-19T17:39:01.754Z,55.88
2022-10-19T17:41:35.992Z,56.07
2022-10-19T17:44:11.111Z,56.02
2022-10-19T17:46:45.217Z,56.22
2022-10-19T17:49:18.992Z,56.30
2022-10-19T17:51:53.382Z,55.81
2022-10-19T17:54:27.219Z,56.16
2022-10-19T17:57:00.465Z,55.82
2022-10-19T17:59:52.065Z,56.31
2022-10-19T18:02:26.789Z,56.72
2022-10-19T18:05:04.852Z,56.81
2022-10-19T18:07:38.534Z,57.01
2022-10-19T18:10:11.880Z,56.43
2022-10-19T18:12:48.210Z,57.04
2022-10-19T18:15:25.845Z,57.32
2022-10-19T18:18:00.365Z,57.31
2022-10-19T18:20:33.969Z,57.44
2022-10-19T18:23:07.522Z,57.76
2022-10-19T18:25:53.842Z,58.01
2022-10-19T18:28:28.709Z,58.15
2022-10-19T18:31:12.236Z,58.33
2022-10-19T18:33:45.705Z,58.25
2022-10-19T18:36:19.176Z,58.50
2022-10-19T18:38:53.247Z,58.47
2022-10-19T18:41:27.546Z,58.79
2022-10-19T18:44:03.783Z,58.93
2022-10-19T18:46:38.873Z,59.02
2022-10-19T18:49:13.101Z,59.23
2022-10-19T18:51:50.748Z,59.36
2022-10-19T18:54:32.058Z,59.43
2022-10-19T18:57:05.734Z,59.63
2022-10-19T18:59:39.182Z,59.62
2022-10-19T19:02:22.512Z,59.71
2022-10-19T19:05:01.927Z,59.76
2022-10-19T19:07:35.471Z,59.79
2022-10-19T19:10:09.539Z,59.60
2022-10-19T19:12:43.962Z,59.68
2022-10-19T19:15:18.194Z,59.91
2022-10-19T19:17:55.508Z,59.94
2022-10-19T19:20:29.019Z,60.08
2022-10-19T19:23:02.568Z,60.05
2022-10-19T19:25:36.048Z,60.17
2022-10-19T19:28:09.763Z,60.11
2022-10-19T19:30:43.794Z,60.26
2022-10-19T19:33:18.895Z,60.41
2022-10-19T19:35:55.380Z,60.52
2022-10-19T19:38:29.223Z,60.74
2022-10-19T19:41:08.077Z,59.99
2022-10-19T19:43:44.271Z,60.40
2022-10-19T19:46:20.157Z,60.75
2022-10-19T19:49:01.199Z,60.85
2022-10-19T19:51:35.498Z,60.87
2022-10-19T19:54:14.175Z,60.98
2022-10-19T19:56:47.991Z,61.15
2022-10-19T19:59:21.312Z,60.54
2022-10-19T20:01:58.696Z,61.07
2022-10-19T20:04:33.848Z,61.16
2022-10-19T20:07:07.527Z,61.21
2022-10-19T20:09:41.441Z,61.44
2022-10-19T20:12:14.825Z,60.82
2022-10-19T20:14:48.889Z,61.28
2022-10-19T20:17:25.925Z,61.40
2022-10-19T20:20:04.034Z,61.54
2022-10-19T20:22:41.131Z,61.59
2022-10-19T20:25:14.788Z,61.78
2022-10-19T20:27:48.329Z,61.20
2022-10-19T20:30:25.215Z,61.74
2022-10-19T20:32:58.948Z,61.75
2022-10-19T20:35:37.270Z,62.04
2022-10-19T20:38:14.056Z,62.16
2022-10-19T20:40:47.723Z,62.21
2022-10-19T20:43:23.482Z,62.20
2022-10-19T20:46:03.632Z,62.42
2022-10-19T20:48:40.490Z,62.59
2022-10-19T20:51:18.473Z,62.63
2022-10-19T20:53:52.397Z,62.93
2022-10-19T20:56:29.535Z,62.16
2022-10-19T20:59:09.563Z,62.53
2022-10-19T21:01:46.733Z,62.64
2022-10-19T21:04:20.425Z,62.98
2022-10-19T21:06:56.545Z,63.02
2022-10-19T21:09:30.198Z,63.11
2022-10-19T21:12:03.814Z,63.03
2022-10-19T21:14:39.883Z,63.18
2022-10-19T21:17:13.511Z,63.38
2022-10-19T21:19:47.267Z,63.32
2022-10-19T21:22:22.284Z,63.55
2022-10-19T21:25:00.629Z,63.59
2022-10-19T21:27:34.496Z,63.61
2022-10-19T21:30:09.431Z,63.84
2022-10-19T21:32:43.146Z,63.79
2022-10-19T21:35:16.807Z,64.03
2022-10-19T21:37:51.953Z,64.07
2022-10-19T21:40:28.251Z,64.09
2022-10-19T21:43:01.850Z,64.13
2022-10-19T21:45:39.046Z,64.27
2022-10-19T21:48:12.630Z,64.24
2022-10-19T21:50:48.976Z,64.11
2022-10-19T21:53:24.724Z,64.22
2022-10-19T21:56:00.967Z,64.30
2022-10-19T21:58:37.097Z,64.38
2022-10-19T22:01:10.756Z,64.31
2022-10-19T22:03:44.796Z,64.16
2022-10-19T22:06:20.539Z,63.72
2022-10-19T22:08:55.875Z,64.21
2022-10-19T22:11:32.759Z,64.37
2022-10-19T22:14:08.127Z,64.54
2022-10-19T22:16:42.318Z,64.51
2022-10-19T22:19:16.072Z,64.71
2022-10-19T22:21:49.700Z,64.69
2022-10-19T22:24:27.752Z,64.97
2022-10-19T22:27:01.504Z,64.93
2022-10-19T22:29:35.201Z,65.06
2022-10-19T22:32:10.030Z,65.03
2022-10-19T22:34:46.787Z,65.10
2022-10-19T22:37:20.422Z,64.87
2022-10-19T22:39:58.228Z,64.99
2022-10-19T22:42:42.562Z,65.02
2022-10-19T22:45:20.749Z,64.50
2022-10-19T22:47:54.262Z,64.75
2022-10-19T22:50:27.861Z,65.12
2022-10-19T22:53:01.520Z,65.03
2022-10-19T22:55:38.855Z,65.24
2022-10-19T23:01:03.778Z,65.27
2022-10-19T23:03:37.840Z,65.45
2022-10-19T23:06:12.773Z,65.67
2022-10-19T23:08:46.541Z,65.74
2022-10-19T23:11:21.593Z,65.05
2022-10-19T23:13:57.163Z,65.45
2022-10-19T23:16:39.930Z,65.72
2022-10-19T23:19:15.859Z,65.81
2022-10-19T23:21:49.455Z,65.89
2022-10-19T23:24:23.239Z,65.95
2022-10-19T23:26:58.202Z,66.00
2022-10-19T23:29:31.806Z,66.22
2022-10-19T23:32:05.508Z,66.32
2022-10-19T23:34:41.059Z,66.40
2022-10-19T23:37:16.903Z,66.21
2022-10-19T23:39:50.442Z,66.45
2022-10-19T23:42:25.481Z,66.45
2022-10-19T23:44:59.226Z,66.55
2022-10-19T23:47:32.866Z,66.56
2022-10-19T23:50:07.260Z,66.67
2022-10-19T23:52:40.904Z,66.67
2022-10-19T23:55:14.539Z,66.81
2022-10-19T23:57:49.526Z,66.67
